createdAt,value
2022-08-05T00:01:25.904Z,11.75
2022-08-05T00:02:19.591Z,9.75
2022-08-05T00:03:24.662Z,12.19
2022-08-05T00:04:29.288Z,14.06
2022-08-05T00:06:05.066Z,12.50
2022-08-05T00:06:39.136Z,10.88
2022-08-05T00:08:00.259Z,14.06
2022-08-05T00:08:50.411Z,13.25
2022-08-05T00:09:57.662Z,12.00
2022-08-05T00:11:05.518Z,12.56
2022-08-05T00:12:13.202Z,14.56
2022-08-05T00:13:18.792Z,13.88
2022-08-05T00:14:22.675Z,12.37
2022-08-05T00:15:54.989Z,12.94
2022-08-05T00:16:36.343Z,15.31
2022-08-05T00:17:41.515Z,12.75
2022-08-05T00:18:48.287Z,14.69
2022-08-05T00:20:02.391Z,13.69
2022-08-05T00:21:03.977Z,12.19
2022-08-05T00:22:11.122Z,13.31
2022-08-05T00:23:14.659Z,14.00
2022-08-05T00:24:24.721Z,13.69
2022-08-05T00:25:25.939Z,12.25
2022-08-05T00:26:29.934Z,10.69
2022-08-05T00:27:36.091Z,13.31
2022-08-05T00:28:40.267Z,12.37
2022-08-05T00:29:44.547Z,12.37
2022-08-05T00:30:52.052Z,16.06
2022-08-05T00:32:13.109Z,14.00
2022-08-05T00:33:04.962Z,15.19
2022-08-05T00:34:54.018Z,13.31
2022-08-05T00:35:18.067Z,14.69
2022-08-05T00:37:11.459Z,13.69
2022-08-05T00:37:51.302Z,14.25
2022-08-05T00:38:38.598Z,15.13
2022-08-05T00:39:58.114Z,14.87
2022-08-05T00:40:54.541Z,14.69
2022-08-05T00:41:58.468Z,14.06
2022-08-05T00:43:07.560Z,15.06
2022-08-05T00:44:09.227Z,15.94
2022-08-05T00:45:13.485Z,14.63
2022-08-05T00:46:18.774Z,15.94
2022-08-05T00:47:24.570Z,14.44
2022-08-05T00:48:31.395Z,13.44
2022-08-05T00:49:44.693Z,14.06
2022-08-05T00:50:44.057Z,12.94
2022-08-05T00:51:51.695Z,15.13
2022-08-05T00:52:55.161Z,13.94
2022-08-05T00:54:02.565Z,15.50
2022-08-05T00:55:05.926Z,14.06
2022-08-05T00:56:10.664Z,16.37
2022-08-05T00:57:16.179Z,15.38
2022-08-05T00:58:21.874Z,16.62
2022-08-05T00:59:43.354Z,15.56
2022-08-05T01:00:34.915Z,16.75
2022-08-05T01:01:48.400Z,15.81
2022-08-05T01:02:45.868Z,13.44
2022-08-05T01:03:49.904Z,14.06
2022-08-05T01:04:54.030Z,14.31
2022-08-05T01:05:58.842Z,13.69
2022-08-05T01:07:05.234Z,13.13
2022-08-05T01:08:41.991Z,13.06
2022-08-05T01:09:14.901Z,13.94
2022-08-05T01:10:25.790Z,11.25
2022-08-05T01:11:36.855Z,15.00
2022-08-05T01:12:40.646Z,14.00
2022-08-05T01:13:58.920Z,12.69
2022-08-05T01:14:57.938Z,13.38
2022-08-05T01:16:05.171Z,10.94
2022-08-05T01:17:31.392Z,15.00
2022-08-05T01:18:40.073Z,9.38
2022-08-05T01:20:01.790Z,15.50
2022-08-05T01:21:13.516Z,15.63
2022-08-05T01:22:47.008Z,16.00
2022-08-05T01:24:14.155Z,16.19
2022-08-05T01:25:24.065Z,11.75
2022-08-05T01:26:50.307Z,16.31
2022-08-05T01:28:19.372Z,13.56
2022-08-05T01:29:29.373Z,12.19
2022-08-05T01:30:37.825Z,14.69
2022-08-05T01:31:47.975Z,11.81
2022-08-05T01:32:53.985Z,15.25
2022-08-05T01:34:11.433Z,16.12
2022-08-05T01:35:50.584Z,15.25
2022-08-05T01:36:33.426Z,16.94
2022-08-05T01:37:50.548Z,15.69
2022-08-05T01:39:01.026Z,13.75
2022-08-05T01:40:05.547Z,16.50
2022-08-05T01:41:11.675Z,13.44
2022-08-05T01:42:25.219Z,8.75
2022-08-05T01:43:27.644Z,15.13
2022-08-05T01:44:35.372Z,15.06
2022-08-05T01:45:42.805Z,16.69
2022-08-05T01:46:46.749Z,14.19
2022-08-05T01:47:56.616Z,14.38
2022-08-05T01:49:24.144Z,17.31
2022-08-05T01:50:17.286Z,18.94
2022-08-05T01:51:22.268Z,14.75
2022-08-05T01:52:28.185Z,13.69
2022-08-05T01:53:57.086Z,14.06
2022-08-05T01:54:48.834Z,15.06
2022-08-05T01:55:57.540Z,16.00
2022-08-05T01:58:09.566Z,14.69
2022-08-05T01:58:15.911Z,15.19
2022-08-05T01:59:22.228Z,13.13
2022-08-05T02:00:29.897Z,14.44
2022-08-05T02:01:39.816Z,14.87
2022-08-05T02:02:54.467Z,15.63
2022-08-05T02:03:58.751Z,13.94
2022-08-05T02:05:05.923Z,12.19
2022-08-05T02:06:37.672Z,13.38
2022-08-05T02:07:23.419Z,15.00
2022-08-05T02:08:30.715Z,14.63
2022-08-05T02:09:35.602Z,12.56
2022-08-05T02:10:42.697Z,16.25
2022-08-05T02:11:52.377Z,16.69
2022-08-05T02:13:02.608Z,14.75
2022-08-05T02:14:17.433Z,15.63
2022-08-05T02:15:37.449Z,12.88
2022-08-05T02:16:46.252Z,14.81
2022-08-05T02:18:30.965Z,13.88
2022-08-05T02:19:11.780Z,13.81
2022-08-05T02:20:23.063Z,15.31
2022-08-05T02:21:46.691Z,14.63
2022-08-05T02:22:49.755Z,11.56
2022-08-05T02:23:56.767Z,13.94
2022-08-05T02:25:21.743Z,13.88
2022-08-05T02:26:34.704Z,15.25
2022-08-05T02:27:58.443Z,13.13
2022-08-05T02:28:55.110Z,17.25
2022-08-05T02:30:00.927Z,14.38
2022-08-05T02:31:21.136Z,11.75
2022-08-05T02:32:29.363Z,14.44
2022-08-05T02:33:38.901Z,17.37
2022-08-05T02:34:54.888Z,15.31
2022-08-05T02:35:57.494Z,14.06
2022-08-05T02:37:00.016Z,14.44
2022-08-05T02:38:09.436Z,13.38
2022-08-05T02:39:14.511Z,10.94
2022-08-05T02:40:21.083Z,13.62
2022-08-05T02:41:42.876Z,15.94
2022-08-05T02:42:37.301Z,16.69
2022-08-05T02:44:02.837Z,15.44
2022-08-05T02:44:50.619Z,13.19
2022-08-05T02:45:56.916Z,9.81
2022-08-05T02:47:05.621Z,15.75
2022-08-05T02:48:12.381Z,12.81
2022-08-05T02:49:18.115Z,14.25
2022-08-05T02:50:26.954Z,13.69
2022-08-05T02:52:02.854Z,13.56
2022-08-05T02:52:40.814Z,15.56
2022-08-05T02:53:47.502Z,14.31
2022-08-05T02:54:54.726Z,13.25
2022-08-05T02:56:02.275Z,14.06
2022-08-05T02:58:11.667Z,12.31
2022-08-05T02:58:20.647Z,13.00
2022-08-05T02:59:27.788Z,13.75
2022-08-05T03:00:33.469Z,13.56
2022-08-05T03:01:40.116Z,13.50
2022-08-05T03:02:48.717Z,13.44
2022-08-05T03:04:02.708Z,14.06
2022-08-05T03:05:02.233Z,15.50
2022-08-05T03:06:56.159Z,14.81
2022-08-05T03:07:59.298Z,14.25
2022-08-05T03:08:29.647Z,16.62
2022-08-05T03:09:37.501Z,15.88
2022-08-05T03:10:37.081Z,14.19
2022-08-05T03:11:57.640Z,16.56
2022-08-05T03:12:51.880Z,16.94
2022-08-05T03:14:03.362Z,15.19
2022-08-05T03:15:03.563Z,14.56
2022-08-05T03:16:15.758Z,12.00
2022-08-05T03:17:15.151Z,15.38
2022-08-05T03:18:19.180Z,14.75
2022-08-05T03:19:34.108Z,14.00
2022-08-05T03:20:33.399Z,14.44
2022-08-05T03:21:41.573Z,16.25
2022-08-05T03:24:13.694Z,13.94
2022-08-05T03:25:32.484Z,15.94
2022-08-05T03:26:31.407Z,12.19
2022-08-05T03:28:31.201Z,16.12
2022-08-05T03:28:53.481Z,13.44
2022-08-05T03:30:08.692Z,13.81
2022-08-05T03:31:09.155Z,11.25
2022-08-05T03:32:17.451Z,15.88
2022-08-05T03:33:25.170Z,14.87
2022-08-05T03:34:30.310Z,16.75
2022-08-05T03:35:41.256Z,15.88
2022-08-05T03:36:40.364Z,15.19
2022-08-05T03:37:46.335Z,15.06
2022-08-05T03:38:53.401Z,16.12
2022-08-05T03:40:01.403Z,13.75
2022-08-05T03:41:08.311Z,16.50
2022-08-05T03:42:13.063Z,15.44
2022-08-05T03:44:08.853Z,15.50
2022-08-05T03:44:24.352Z,14.56
2022-08-05T03:45:28.340Z,19.06
2022-08-05T03:46:33.086Z,15.50
2022-08-05T03:47:41.196Z,14.50
2022-08-05T03:48:45.410Z,17.12
2022-08-05T03:49:52.401Z,17.06
2022-08-05T03:52:38.777Z,17.75
2022-08-05T03:52:48.889Z,16.87
2022-08-05T03:55:34.061Z,16.06
2022-08-05T03:55:52.347Z,16.75
2022-08-05T03:56:10.153Z,18.81
2022-08-05T03:57:02.871Z,19.81
2022-08-05T03:58:12.666Z,16.31
2022-08-05T03:59:46.912Z,19.12
2022-08-05T04:00:42.172Z,16.87
2022-08-05T04:01:50.563Z,19.00
2022-08-05T04:02:59.320Z,19.25
2022-08-05T04:04:09.808Z,19.94
2022-08-05T04:05:14.660Z,16.37
2022-08-05T04:06:20.850Z,14.00
2022-08-05T04:07:26.193Z,16.75
2022-08-05T04:08:37.502Z,19.31
2022-08-05T04:09:38.752Z,19.81
2022-08-05T04:10:46.010Z,19.37
2022-08-05T04:11:56.474Z,15.31
2022-08-05T04:13:03.505Z,18.56
2022-08-05T04:14:10.550Z,17.94
2022-08-05T04:15:24.565Z,19.44
2022-08-05T04:16:32.146Z,19.00
2022-08-05T04:17:55.835Z,19.69
2022-08-05T04:18:41.187Z,20.94
2022-08-05T04:19:54.488Z,21.25
2022-08-05T04:20:58.237Z,21.25
2022-08-05T04:22:09.668Z,19.87
2022-08-05T04:23:12.439Z,19.94
2022-08-05T04:24:19.161Z,18.25
2022-08-05T04:25:38.339Z,19.81
2022-08-05T04:27:19.646Z,19.37
2022-08-05T04:27:58.175Z,19.50
2022-08-05T04:28:52.295Z,18.69
2022-08-05T04:29:56.438Z,19.50
2022-08-05T04:31:14.725Z,19.75
2022-08-05T04:32:30.557Z,19.37
2022-08-05T04:34:17.734Z,18.00
2022-08-05T04:34:50.991Z,21.12
2022-08-05T04:36:15.581Z,18.56
2022-08-05T04:36:51.145Z,18.67
2022-08-05T04:38:02.880Z,21.00
2022-08-05T04:39:01.702Z,20.06
2022-08-05T04:40:07.755Z,17.81
2022-08-05T04:41:12.060Z,19.50
2022-08-05T04:42:25.343Z,18.44
2022-08-05T04:43:27.714Z,20.25
2022-08-05T04:44:31.755Z,21.81
2022-08-05T04:45:48.518Z,22.00
2022-08-05T04:46:43.602Z,17.37
2022-08-05T04:47:55.354Z,20.75
2022-08-05T04:49:04.290Z,19.87
2022-08-05T04:50:11.132Z,20.44
2022-08-05T04:51:15.439Z,21.50
2022-08-05T04:52:19.451Z,20.88
2022-08-05T04:53:33.560Z,20.94
2022-08-05T04:54:33.974Z,23.62
2022-08-05T04:56:34.017Z,20.37
2022-08-05T04:56:58.923Z,23.31
2022-08-05T04:58:02.165Z,16.06
2022-08-05T04:59:24.223Z,19.50
2022-08-05T05:00:12.876Z,22.87
2022-08-05T05:02:08.386Z,19.25
2022-08-05T05:02:41.229Z,21.12
2022-08-05T05:03:41.754Z,21.12
2022-08-05T05:04:43.830Z,20.94
2022-08-05T05:06:40.505Z,16.44
2022-08-05T05:06:52.097Z,22.56
2022-08-05T05:08:01.773Z,79.25
2022-08-05T05:09:05.532Z,23.31
2022-08-05T05:10:14.131Z,18.37
2022-08-05T05:11:19.376Z,19.25
2022-08-05T05:12:30.279Z,20.62
2022-08-05T05:13:43.004Z,21.56
2022-08-05T05:14:50.501Z,19.56
2022-08-05T05:15:57.847Z,18.94
2022-08-05T05:18:09.836Z,20.06
2022-08-05T05:18:52.311Z,19.75
2022-08-05T05:19:19.352Z,19.81
2022-08-05T05:20:23.304Z,19.00
2022-08-05T05:21:29.125Z,21.87
2022-08-05T05:22:40.671Z,19.81
2022-08-05T05:24:03.907Z,21.37
2022-08-05T05:24:59.041Z,19.69
2022-08-05T05:25:54.063Z,20.06
2022-08-05T05:27:01.126Z,20.75
2022-08-05T05:28:05.733Z,17.62
2022-08-05T05:29:17.424Z,19.56
2022-08-05T05:30:31.509Z,21.69
2022-08-05T05:32:37.468Z,20.00
2022-08-05T05:33:59.203Z,20.62
2022-08-05T05:34:47.863Z,20.94
2022-08-05T05:35:53.562Z,22.06
2022-08-05T05:36:57.939Z,21.87
2022-08-05T05:38:02.939Z,22.25
2022-08-05T05:39:09.880Z,19.94
2022-08-05T05:40:17.794Z,20.93
2022-08-05T05:41:22.810Z,19.62
2022-08-05T05:42:27.965Z,23.00
2022-08-05T05:43:58.098Z,67.00
2022-08-05T05:44:44.394Z,45.38
2022-08-05T05:45:48.218Z,22.56
2022-08-05T05:46:51.067Z,21.44
2022-08-05T05:48:06.502Z,22.37
2022-08-05T05:49:22.836Z,22.87
2022-08-05T05:50:19.825Z,19.87
2022-08-05T05:51:24.280Z,22.13
2022-08-05T05:52:33.045Z,21.50
2022-08-05T05:53:54.387Z,22.13
2022-08-05T05:54:50.078Z,24.00
2022-08-05T05:55:52.413Z,20.06
2022-08-05T05:56:53.049Z,21.50
2022-08-05T05:57:58.475Z,18.25
2022-08-05T05:59:06.940Z,22.37
2022-08-05T06:00:18.857Z,25.19
2022-08-05T06:01:23.568Z,23.50
2022-08-05T06:02:37.366Z,22.56
2022-08-05T06:03:54.084Z,22.80
2022-08-05T06:04:42.901Z,22.19
2022-08-05T06:05:54.195Z,23.00
2022-08-05T06:06:55.727Z,21.56
2022-08-05T06:08:07.864Z,20.62
2022-08-05T06:09:17.052Z,22.25
2022-08-05T06:10:15.301Z,22.06
2022-08-05T06:11:19.742Z,20.37
2022-08-05T06:12:23.920Z,22.60
2022-08-05T06:13:32.238Z,22.75
2022-08-05T06:14:40.231Z,22.69
2022-08-05T06:16:27.320Z,20.37
2022-08-05T06:16:48.547Z,20.94
2022-08-05T06:17:54.611Z,20.81
2022-08-05T06:18:59.912Z,22.13
2022-08-05T06:20:06.283Z,22.25
2022-08-05T06:21:16.642Z,22.25
2022-08-05T06:22:27.204Z,20.88
2022-08-05T06:23:43.589Z,21.06
2022-08-05T06:24:48.230Z,22.00
2022-08-05T06:26:13.008Z,21.31
2022-08-05T06:26:58.715Z,19.50
2022-08-05T06:28:12.676Z,20.69
2022-08-05T06:29:42.948Z,22.13
2022-08-05T06:30:21.665Z,21.37
2022-08-05T06:31:38.212Z,23.19
2022-08-05T06:32:44.999Z,17.19
2022-08-05T06:34:07.838Z,21.44
2022-08-05T06:34:53.318Z,22.56
2022-08-05T06:36:07.829Z,20.56
2022-08-05T06:37:06.644Z,21.69
2022-08-05T06:38:12.265Z,24.19
2022-08-05T06:39:18.383Z,23.00
2022-08-05T06:40:32.407Z,19.69
2022-08-05T06:41:37.404Z,22.40
2022-08-05T06:42:44.701Z,21.19
2022-08-05T06:43:51.753Z,22.50
2022-08-05T06:44:58.103Z,22.75
2022-08-05T06:46:06.753Z,21.93
2022-08-05T06:47:10.286Z,21.69
2022-08-05T06:48:50.451Z,21.69
2022-08-05T06:50:00.466Z,23.75
2022-08-05T06:50:35.863Z,22.87
2022-08-05T06:51:45.584Z,21.87
2022-08-05T06:53:03.565Z,23.44
2022-08-05T06:53:58.157Z,91.56
2022-08-05T06:55:02.511Z,23.06
2022-08-05T06:56:06.935Z,24.06
2022-08-05T06:57:57.403Z,21.31
2022-08-05T06:58:34.754Z,22.62
2022-08-05T06:59:27.014Z,21.06
2022-08-05T07:00:31.681Z,23.38
2022-08-05T07:01:40.873Z,18.94
2022-08-05T07:03:09.954Z,20.44
2022-08-05T07:04:14.276Z,23.31
2022-08-05T07:05:18.904Z,22.19
2022-08-05T07:06:25.618Z,20.25
2022-08-05T07:09:58.291Z,21.50
2022-08-05T07:11:02.066Z,19.87
2022-08-05T07:12:06.459Z,21.31
2022-08-05T07:13:10.826Z,21.12
2022-08-05T07:14:20.407Z,21.25
2022-08-05T07:15:34.049Z,20.81
2022-08-05T07:17:56.863Z,21.81
2022-08-05T07:18:01.975Z,21.50
2022-08-05T07:18:52.545Z,21.69
2022-08-05T07:21:04.670Z,21.12
2022-08-05T07:22:12.658Z,21.44
2022-08-05T07:23:26.089Z,19.87
2022-08-05T07:24:19.358Z,19.56
2022-08-05T07:25:55.332Z,20.75
2022-08-05T07:26:35.949Z,21.44
2022-08-05T07:27:57.196Z,21.25
2022-08-05T07:28:50.389Z,19.06
2022-08-05T07:30:27.292Z,21.06
2022-08-05T07:31:02.376Z,18.50
2022-08-05T07:32:09.159Z,21.56
2022-08-05T07:33:16.865Z,19.62
2022-08-05T07:34:21.521Z,19.00
2022-08-05T07:36:03.792Z,21.00
2022-08-05T07:36:34.657Z,19.50
2022-08-05T07:37:45.896Z,19.81
2022-08-05T07:40:32.665Z,16.44
2022-08-05T07:42:12.961Z,23.69
2022-08-05T07:43:52.789Z,21.00
2022-08-05T07:44:58.504Z,19.44
2022-08-05T07:46:05.950Z,19.19
2022-08-05T07:47:11.783Z,18.25
2022-08-05T07:49:00.829Z,18.50
2022-08-05T07:49:25.814Z,19.69
2022-08-05T07:50:32.614Z,19.50
2022-08-05T07:51:40.601Z,20.06
2022-08-05T07:52:44.858Z,19.12
2022-08-05T07:53:53.760Z,18.94
2022-08-05T07:54:58.240Z,16.94
2022-08-05T07:56:06.330Z,17.44
2022-08-05T07:57:22.640Z,19.31
2022-08-05T07:58:17.785Z,20.88
2022-08-05T07:59:21.931Z,19.31
2022-08-05T08:00:28.797Z,19.06
2022-08-05T08:01:33.191Z,17.00
2022-08-05T08:03:14.322Z,20.06
2022-08-05T08:03:45.150Z,18.69
2022-08-05T08:04:49.842Z,20.25
2022-08-05T08:05:54.148Z,18.19
2022-08-05T08:06:58.353Z,17.56
2022-08-05T08:08:04.171Z,18.62
2022-08-05T08:09:25.037Z,18.94
2022-08-05T08:10:22.663Z,17.87
2022-08-05T08:11:27.623Z,18.81
2022-08-05T08:12:49.358Z,18.62
2022-08-05T08:14:00.768Z,19.75
2022-08-05T08:15:14.033Z,19.31
2022-08-05T08:16:35.119Z,17.87
2022-08-05T08:17:19.396Z,19.94
2022-08-05T08:18:25.318Z,18.94
2022-08-05T08:20:22.816Z,17.62
2022-08-05T08:20:44.067Z,18.50
2022-08-05T08:21:45.696Z,17.62
2022-08-05T08:22:54.028Z,14.06
2022-08-05T08:24:04.672Z,15.56
2022-08-05T08:25:27.206Z,18.94
2022-08-05T08:26:27.064Z,17.56
2022-08-05T08:27:44.992Z,18.87
2022-08-05T08:28:59.094Z,17.87
2022-08-05T08:30:05.854Z,16.69
2022-08-05T08:30:49.901Z,20.56
2022-08-05T08:31:54.765Z,17.69
2022-08-05T08:33:02.598Z,34.88
2022-08-05T08:34:06.205Z,44.80
2022-08-05T08:35:13.624Z,44.63
2022-08-05T08:36:38.521Z,34.00
2022-08-05T08:37:28.236Z,51.13
2022-08-05T08:38:35.730Z,34.94
2022-08-05T08:39:38.223Z,29.00
2022-08-05T08:40:51.496Z,28.38
2022-08-05T08:42:02.086Z,19.12
2022-08-05T08:44:54.643Z,22.37
2022-08-05T08:45:22.850Z,19.87
2022-08-05T08:45:26.293Z,19.56
2022-08-05T08:46:25.965Z,6.31
2022-08-05T08:48:07.338Z,25.25
2022-08-05T08:48:42.947Z,28.50
2022-08-05T08:50:06.197Z,29.94
2022-08-05T08:51:22.427Z,30.44
2022-08-05T08:52:15.502Z,31.62
2022-08-05T08:53:22.482Z,36.38
2022-08-05T08:54:30.176Z,36.06
2022-08-05T08:56:02.740Z,27.81
2022-08-05T08:56:47.787Z,22.00
2022-08-05T08:57:58.290Z,27.87
2022-08-05T08:58:57.418Z,23.27
2022-08-05T09:00:05.848Z,22.37
2022-08-05T09:01:16.355Z,24.06
2022-08-05T09:02:19.451Z,21.94
2022-08-05T09:03:40.327Z,26.94
2022-08-05T09:04:58.338Z,30.56
2022-08-05T09:06:07.524Z,33.19
2022-08-05T09:06:55.449Z,31.31
2022-08-05T09:08:01.950Z,25.19
2022-08-05T09:09:07.932Z,21.69
2022-08-05T09:10:15.373Z,25.37
2022-08-05T09:11:51.322Z,26.00
2022-08-05T09:12:27.874Z,26.06
2022-08-05T09:14:00.910Z,26.69
2022-08-05T09:14:56.545Z,25.73
2022-08-05T09:15:47.987Z,13.88
2022-08-05T09:16:52.512Z,15.00
2022-08-05T09:17:56.758Z,18.81
2022-08-05T09:19:00.871Z,16.75
2022-08-05T09:20:11.356Z,18.69
2022-08-05T09:21:20.867Z,17.44
2022-08-05T09:22:31.189Z,17.00
2022-08-05T09:23:37.415Z,17.94
2022-08-05T09:24:37.211Z,17.75
2022-08-05T09:26:02.122Z,18.31
2022-08-05T09:26:58.784Z,19.06
2022-08-05T09:28:21.093Z,15.94
2022-08-05T09:29:30.880Z,17.50
2022-08-05T09:30:29.704Z,15.81
2022-08-05T09:32:40.125Z,18.44
2022-08-05T09:32:51.993Z,22.75
2022-08-05T09:33:54.549Z,17.94
2022-08-05T09:34:58.754Z,26.19
2022-08-05T09:36:11.602Z,23.44
2022-08-05T09:38:12.580Z,37.56
2022-08-05T09:38:31.226Z,24.12
2022-08-05T09:39:41.298Z,19.94
2022-08-05T09:40:52.690Z,21.62
2022-08-05T09:42:05.474Z,22.06
2022-08-05T09:43:40.605Z,20.88
2022-08-05T09:44:51.261Z,28.62
2022-08-05T09:46:06.857Z,26.56
2022-08-05T09:47:16.065Z,28.12
2022-08-05T09:48:32.465Z,28.56
2022-08-05T09:49:40.354Z,15.94
2022-08-05T09:50:44.116Z,18.19
2022-08-05T09:51:48.998Z,18.44
2022-08-05T09:52:55.662Z,15.63
2022-08-05T09:54:01.850Z,23.94
2022-08-05T09:55:58.678Z,24.00
2022-08-05T09:56:30.190Z,29.19
2022-08-05T09:57:43.197Z,18.50
2022-08-05T09:59:05.490Z,30.31
2022-08-05T10:00:25.636Z,35.81
2022-08-05T10:01:31.812Z,29.56
2022-08-05T10:02:38.833Z,38.63
2022-08-05T10:03:58.619Z,46.63
2022-08-05T10:05:09.597Z,27.25
2022-08-05T10:06:18.847Z,27.87
2022-08-05T10:08:10.987Z,9.75
2022-08-05T10:08:38.311Z,17.94
2022-08-05T10:09:46.626Z,19.44
2022-08-05T10:10:55.051Z,18.87
2022-08-05T10:12:30.337Z,19.00
2022-08-05T10:13:45.697Z,16.37
2022-08-05T10:14:37.929Z,20.00
2022-08-05T10:15:43.656Z,18.50
2022-08-05T10:16:52.760Z,19.75
2022-08-05T10:18:14.631Z,18.62
2022-08-05T10:19:23.553Z,19.75
2022-08-05T10:20:31.315Z,18.56
2022-08-05T10:21:40.495Z,19.81
2022-08-05T10:22:42.924Z,20.69
2022-08-05T10:23:55.991Z,21.00
2022-08-05T10:24:55.948Z,19.69
2022-08-05T10:26:02.851Z,19.87
2022-08-05T10:27:09.210Z,17.37
2022-08-05T10:28:19.531Z,16.50
2022-08-05T10:30:06.369Z,18.06
2022-08-05T10:32:48.094Z,17.19
2022-08-05T10:32:51.847Z,18.25
2022-08-05T10:32:53.762Z,19.25
2022-08-05T10:33:54.071Z,19.19
2022-08-05T10:35:00.927Z,19.06
2022-08-05T10:36:04.564Z,19.94
2022-08-05T10:37:09.339Z,19.25
2022-08-05T10:38:15.880Z,17.94
2022-08-05T10:39:25.078Z,18.81
2022-08-05T10:40:48.350Z,24.81
2022-08-05T10:42:18.435Z,37.75
2022-08-05T10:43:47.641Z,22.94
2022-08-05T10:44:56.760Z,27.44
2022-08-05T10:46:06.415Z,40.94
2022-08-05T10:47:26.665Z,39.88
2022-08-05T10:48:39.631Z,40.88
2022-08-05T10:50:32.863Z,43.38
2022-08-05T10:51:21.686Z,46.44
2022-08-05T10:52:19.233Z,33.44
2022-08-05T10:53:42.703Z,31.75
2022-08-05T10:54:56.566Z,23.75
2022-08-05T10:56:21.281Z,24.00
2022-08-05T10:57:18.401Z,20.25
2022-08-05T10:58:22.869Z,21.44
2022-08-05T11:00:04.283Z,24.25
2022-08-05T11:00:42.222Z,19.50
2022-08-05T11:01:55.128Z,18.31
2022-08-05T11:03:23.041Z,20.44
2022-08-05T11:04:15.498Z,20.31
2022-08-05T11:05:20.050Z,21.06
2022-08-05T11:06:30.829Z,21.00
2022-08-05T11:07:33.316Z,20.31
2022-08-05T11:08:37.211Z,19.81
2022-08-05T11:09:47.799Z,20.62
2022-08-05T11:11:01.462Z,21.06
2022-08-05T11:11:59.396Z,20.88
2022-08-05T11:13:06.542Z,20.37
2022-08-05T11:14:12.814Z,19.00
2022-08-05T11:15:21.218Z,5.37
2022-08-05T11:16:47.523Z,13.50
2022-08-05T11:18:00.349Z,17.37
2022-08-05T11:18:47.057Z,7.37
2022-08-05T11:20:17.484Z,9.69
2022-08-05T11:20:56.883Z,15.38
2022-08-05T11:22:04.024Z,13.69
2022-08-05T11:23:33.600Z,14.06
2022-08-05T11:24:32.974Z,6.00
2022-08-05T11:26:05.698Z,11.19
2022-08-05T11:26:49.618Z,14.44
2022-08-05T11:27:51.664Z,10.31
2022-08-05T11:28:56.777Z,6.87
2022-08-05T11:30:01.668Z,3.81
2022-08-05T11:31:11.722Z,17.19
2022-08-05T11:32:29.562Z,18.69
2022-08-05T11:33:46.139Z,20.50
2022-08-05T11:34:51.502Z,19.94
2022-08-05T11:36:07.944Z,7.62
2022-08-05T11:38:28.730Z,11.31
2022-08-05T11:38:30.043Z,5.37
2022-08-05T11:39:55.276Z,4.44
2022-08-05T11:41:12.874Z,18.44
2022-08-05T11:42:08.309Z,11.06
2022-08-05T11:43:21.449Z,14.69
2022-08-05T11:44:40.528Z,9.56
2022-08-05T11:46:27.345Z,8.69
2022-08-05T11:47:10.329Z,6.75
2022-08-05T11:47:59.460Z,20.06
2022-08-05T11:49:06.278Z,22.87
2022-08-05T11:50:14.719Z,22.75
2022-08-05T11:51:44.115Z,21.87
2022-08-05T11:52:31.344Z,26.69
2022-08-05T11:53:40.992Z,19.06
2022-08-05T11:54:48.505Z,22.13
2022-08-05T11:55:59.901Z,24.19
2022-08-05T11:57:08.234Z,23.12
2022-08-05T11:58:12.172Z,21.87
2022-08-05T11:59:21.178Z,19.81
2022-08-05T12:00:32.152Z,17.00
2022-08-05T12:01:44.125Z,14.81
2022-08-05T12:02:47.435Z,13.69
2022-08-05T12:04:06.025Z,13.50
2022-08-05T12:05:08.033Z,18.25
2022-08-05T12:06:12.211Z,16.87
2022-08-05T12:07:18.111Z,16.25
2022-08-05T12:08:23.906Z,13.06
2022-08-05T12:09:53.007Z,15.88
2022-08-05T12:10:45.853Z,11.88
2022-08-05T12:11:50.378Z,17.12
2022-08-05T12:12:59.529Z,20.25
2022-08-05T12:14:05.912Z,18.56
2022-08-05T12:15:20.831Z,19.37
2022-08-05T12:16:38.281Z,19.19
2022-08-05T12:18:02.984Z,20.37
2022-08-05T12:18:52.446Z,21.62
2022-08-05T12:20:25.770Z,24.25
2022-08-05T12:21:15.218Z,23.81
2022-08-05T12:22:25.133Z,24.63
2022-08-05T12:23:31.179Z,26.06
2022-08-05T12:24:49.637Z,26.87
2022-08-05T12:25:57.994Z,23.06
2022-08-05T12:27:09.841Z,20.12
2022-08-05T12:28:08.397Z,18.81
2022-08-05T12:29:22.812Z,21.62
2022-08-05T12:30:29.056Z,19.50
2022-08-05T12:31:42.456Z,20.75
2022-08-05T12:32:50.441Z,19.06
2022-08-05T12:33:55.580Z,19.19
2022-08-05T12:35:01.572Z,15.31
2022-08-05T12:37:21.580Z,18.94
2022-08-05T12:37:48.334Z,17.19
2022-08-05T12:38:31.455Z,16.44
2022-08-05T12:39:38.687Z,13.81
2022-08-05T12:40:44.217Z,18.75
2022-08-05T12:41:48.703Z,17.94
2022-08-05T12:44:11.696Z,18.25
2022-08-05T12:45:19.801Z,18.69
2022-08-05T12:46:15.129Z,16.87
2022-08-05T12:46:32.737Z,17.12
2022-08-05T12:47:37.912Z,18.44
2022-08-05T12:48:45.243Z,19.31
2022-08-05T12:50:03.896Z,14.00
2022-08-05T12:51:21.621Z,19.00
2022-08-05T12:52:25.344Z,20.00
2022-08-05T12:53:37.042Z,20.06
2022-08-05T12:54:39.803Z,20.50
2022-08-05T12:55:45.460Z,20.31
2022-08-05T12:57:02.180Z,19.37
2022-08-05T12:58:49.932Z,22.25
2022-08-05T12:59:46.679Z,19.19
2022-08-05T13:02:03.965Z,19.44
2022-08-05T13:02:16.662Z,20.06
2022-08-05T13:02:56.544Z,20.44
2022-08-05T13:04:09.614Z,20.69
2022-08-05T13:05:15.136Z,18.31
2022-08-05T13:06:19.605Z,16.31
2022-08-05T13:07:59.981Z,10.69
2022-08-05T13:08:35.072Z,19.62
2022-08-05T13:09:57.034Z,18.62
2022-08-05T13:11:01.902Z,18.37
2022-08-05T13:12:16.064Z,17.87
2022-08-05T13:14:06.089Z,18.19
2022-08-05T13:14:36.189Z,18.87
2022-08-05T13:15:42.145Z,17.25
2022-08-05T13:16:49.227Z,20.50
2022-08-05T13:17:56.419Z,25.12
2022-08-05T13:19:02.597Z,42.00
2022-08-05T13:20:09.700Z,41.25
2022-08-05T13:21:18.499Z,61.93
2022-08-05T13:22:29.541Z,66.80
2022-08-05T13:23:31.401Z,76.75
2022-08-05T13:24:51.213Z,75.25
2022-08-05T13:26:03.825Z,73.87
2022-08-05T13:27:17.158Z,76.93
2022-08-05T13:28:20.747Z,70.13
2022-08-05T13:29:37.517Z,71.94
2022-08-05T13:30:37.122Z,66.44
2022-08-05T13:32:04.315Z,66.69
2022-08-05T13:32:50.456Z,70.94
2022-08-05T13:34:24.627Z,77.25
2022-08-05T13:34:57.942Z,68.12
2022-08-05T13:36:02.079Z,75.94
2022-08-05T13:37:08.680Z,67.50
2022-08-05T13:38:28.017Z,68.25
2022-08-05T13:40:14.294Z,72.87
2022-08-05T13:40:53.994Z,82.25
2022-08-05T13:42:00.746Z,77.69
2022-08-05T13:43:12.213Z,77.00
2022-08-05T13:44:15.324Z,77.50
2022-08-05T13:45:21.582Z,75.62
2022-08-05T13:46:50.977Z,76.44
2022-08-05T13:49:00.405Z,78.81
2022-08-05T13:49:59.828Z,70.81
2022-08-05T13:51:26.393Z,67.87
2022-08-05T13:52:29.045Z,52.75
2022-08-05T13:53:31.201Z,70.37
2022-08-05T13:54:16.321Z,76.87
2022-08-05T13:54:35.410Z,45.94
2022-08-05T13:55:41.421Z,63.75
2022-08-05T13:56:50.543Z,61.56
2022-08-05T13:57:53.787Z,52.25
2022-08-05T13:58:59.783Z,11.88
2022-08-05T14:00:08.177Z,60.56
2022-08-05T14:01:17.506Z,67.62
2022-08-05T14:02:21.265Z,76.19
2022-08-05T14:03:32.019Z,77.37
2022-08-05T14:06:37.941Z,87.12
2022-08-05T14:07:25.778Z,101.12
2022-08-05T14:08:36.877Z,99.94
2022-08-05T14:09:30.653Z,95.94
2022-08-05T14:10:35.409Z,80.69
2022-08-05T14:12:04.340Z,86.75
2022-08-05T14:13:04.055Z,83.62
2022-08-05T14:14:12.459Z,82.00
2022-08-05T14:15:06.154Z,84.75
2022-08-05T14:16:11.397Z,73.94
2022-08-05T14:17:17.669Z,78.37
2022-08-05T14:18:23.080Z,80.25
2022-08-05T14:19:28.022Z,64.20
2022-08-05T14:20:32.788Z,52.13
2022-08-05T14:22:09.998Z,40.44
2022-08-05T14:22:50.100Z,44.38
2022-08-05T14:23:48.566Z,68.56
2022-08-05T14:25:18.983Z,68.81
2022-08-05T14:26:02.550Z,68.87
2022-08-05T14:27:18.200Z,68.25
2022-08-05T14:28:22.775Z,65.62
2022-08-05T14:29:24.450Z,46.44
2022-08-05T14:32:03.725Z,45.38
2022-08-05T14:32:49.105Z,43.06
2022-08-05T14:33:59.915Z,57.06
2022-08-05T14:34:00.341Z,41.00
2022-08-05T14:35:03.360Z,56.56
2022-08-05T14:36:07.702Z,54.94
2022-08-05T14:37:16.779Z,57.25
2022-08-05T14:38:31.571Z,63.00
2022-08-05T14:39:29.738Z,75.31
2022-08-05T14:40:35.448Z,70.12
2022-08-05T14:42:02.416Z,60.87
2022-08-05T14:43:02.684Z,62.67
2022-08-05T14:44:02.245Z,80.53
2022-08-05T14:45:07.744Z,71.80
2022-08-05T14:46:08.810Z,81.40
2022-08-05T14:47:12.859Z,85.93
2022-08-05T14:48:33.138Z,73.67
2022-08-05T14:49:22.612Z,69.27
2022-08-05T14:50:28.138Z,78.56